createdAt,value
2018-06-09T00:01:38.990Z,3.90
2018-06-09T00:03:43.255Z,4.50
2018-06-09T00:05:47.494Z,3.77
2018-06-09T00:07:51.758Z,4.60
2018-06-09T00:09:56.028Z,4.53
2018-06-09T00:12:00.253Z,4.50
2018-06-09T00:14:04.822Z,4.80
2018-06-09T00:16:09.106Z,5.20
2018-06-09T00:18:13.334Z,5.80
2018-06-09T00:20:17.295Z,5.73
2018-06-09T00:22:21.299Z,5.40
2018-06-09T00:24:25.549Z,4.93
2018-06-09T00:26:30.060Z,4.90
2018-06-09T00:28:34.327Z,5.20
2018-06-09T00:30:38.901Z,5.00
2018-06-09T00:32:43.469Z,4.27
2018-06-09T00:34:47.435Z,4.77
2018-06-09T00:36:51.694Z,4.50
2018-06-09T00:38:56.555Z,4.70
2018-06-09T00:41:00.809Z,4.90
2018-06-09T00:43:05.314Z,4.50
2018-06-09T00:45:09.851Z,5.03
2018-06-09T00:47:14.101Z,5.07
2018-06-09T00:49:18.329Z,4.80
2018-06-09T00:51:22.905Z,5.00
2018-06-09T00:53:27.162Z,5.50
2018-06-09T00:55:31.415Z,4.30
2018-06-09T00:57:35.883Z,5.10
2018-06-09T00:59:40.105Z,5.60
2018-06-09T01:01:44.353Z,4.73
2018-06-09T01:03:48.914Z,5.30
2018-06-09T01:05:52.873Z,5.00
2018-06-09T01:07:57.098Z,5.00
2018-06-09T01:10:01.475Z,5.20
2018-06-09T01:12:05.706Z,13.70
2018-06-09T01:14:09.742Z,11.47
2018-06-09T01:16:13.887Z,9.27
2018-06-09T01:18:17.858Z,7.27
2018-06-09T01:20:22.765Z,10.90
2018-06-09T01:22:27.056Z,11.50
2018-06-09T01:24:31.859Z,6.60
2018-06-09T01:26:36.130Z,5.70
2018-06-09T01:28:40.311Z,6.60
2018-06-09T01:30:44.644Z,7.37
2018-06-09T01:32:48.599Z,9.37
2018-06-09T01:34:53.227Z,7.03
2018-06-09T01:36:57.454Z,5.40
2018-06-09T01:39:01.726Z,5.00
2018-06-09T01:41:06.059Z,5.30
2018-06-09T01:43:10.387Z,7.43
2018-06-09T01:45:14.425Z,16.60
2018-06-09T01:47:18.802Z,7.60
2018-06-09T01:49:23.049Z,6.40
2018-06-09T01:51:27.666Z,6.40
2018-06-09T01:53:32.030Z,5.30
2018-06-09T01:55:36.518Z,5.80
2018-06-09T01:57:40.786Z,7.30
2018-06-09T01:59:45.327Z,5.20
2018-06-09T02:01:49.574Z,5.77
2018-06-09T02:03:53.834Z,5.00
2018-06-09T02:05:58.716Z,5.10
2018-06-09T02:08:02.937Z,5.30
2018-06-09T02:10:07.563Z,4.13
2018-06-09T02:12:11.895Z,4.90
2018-06-09T02:14:16.110Z,5.23
2018-06-09T02:16:20.406Z,5.53
2018-06-09T02:18:24.659Z,5.30
2018-06-09T02:20:29.102Z,5.23
2018-06-09T02:22:33.882Z,5.20
2018-06-09T02:24:38.122Z,5.20
2018-06-09T02:26:42.406Z,5.50
2018-06-09T02:28:46.663Z,4.40
2018-06-09T02:30:50.962Z,4.80
2018-06-09T02:32:55.621Z,5.10
2018-06-09T02:34:59.873Z,4.80
2018-06-09T02:37:03.866Z,4.93
2018-06-09T02:39:08.221Z,4.60
2018-06-09T02:41:12.790Z,5.47
2018-06-09T02:43:17.067Z,5.17
2018-06-09T02:45:21.582Z,4.43
2018-06-09T02:47:26.142Z,5.40
2018-06-09T02:49:31.221Z,4.97
2018-06-09T02:51:35.477Z,5.27
2018-06-09T02:53:39.505Z,4.60
2018-06-09T02:55:43.731Z,5.40
2018-06-09T02:57:48.279Z,4.87
2018-06-09T02:59:52.655Z,5.10
2018-06-09T03:01:56.982Z,4.40
2018-06-09T03:04:01.582Z,4.73
2018-06-09T03:06:05.830Z,4.83
2018-06-09T03:08:10.292Z,4.90
2018-06-09T03:10:14.538Z,4.67
2018-06-09T03:12:18.538Z,4.70
2018-06-09T03:14:22.773Z,4.23
2018-06-09T03:16:27.036Z,4.60
2018-06-09T03:18:31.501Z,4.60
2018-06-09T03:20:35.730Z,4.57
2018-06-09T03:22:39.702Z,4.40
2018-06-09T03:24:45.007Z,4.27
2018-06-09T03:26:49.596Z,4.53
2018-06-09T03:28:54.018Z,4.30
2018-06-09T03:30:58.245Z,4.33
2018-06-09T03:33:02.834Z,4.20
2018-06-09T03:35:07.298Z,4.20
2018-06-09T03:37:11.790Z,4.30
2018-06-09T03:39:16.184Z,4.00
2018-06-09T03:41:20.416Z,4.17
2018-06-09T03:43:24.923Z,3.90
2018-06-09T03:45:29.397Z,4.30
2018-06-09T03:47:33.650Z,3.73
2018-06-09T03:49:37.885Z,3.60
2018-06-09T03:51:42.182Z,4.70
2018-06-09T03:53:46.422Z,3.70
2018-06-09T03:55:50.674Z,3.90
2018-06-09T03:57:54.978Z,4.00
2018-06-09T03:59:59.462Z,3.87
2018-06-09T04:02:04.017Z,4.07
2018-06-09T04:04:08.616Z,4.70
2018-06-09T04:06:12.933Z,3.03
2018-06-09T04:08:17.201Z,3.80
2018-06-09T04:10:21.446Z,3.57
2018-06-09T04:12:26.103Z,3.67
2018-06-09T04:14:30.210Z,3.73
2018-06-09T04:16:35.124Z,3.70
2018-06-09T04:18:40.419Z,3.40
2018-06-09T04:20:44.413Z,3.57
2018-06-09T04:22:48.687Z,3.47
2018-06-09T04:24:52.979Z,3.60
2018-06-09T04:26:57.221Z,2.90
2018-06-09T04:29:01.454Z,3.50
2018-06-09T04:31:05.810Z,3.37
2018-06-09T04:33:10.290Z,2.93
2018-06-09T04:35:14.517Z,3.30
2018-06-09T04:37:18.766Z,3.10
2018-06-09T04:39:23.544Z,3.23
2018-06-09T04:41:27.778Z,3.07
2018-06-09T04:43:32.074Z,3.30
2018-06-09T04:45:37.232Z,2.63
2018-06-09T04:47:41.670Z,2.63
2018-06-09T04:49:45.922Z,5.20
2018-06-09T04:51:50.440Z,3.47
2018-06-09T04:53:54.682Z,3.57
2018-06-09T04:55:58.976Z,2.73
2018-06-09T04:58:03.594Z,3.77
2018-06-09T05:00:08.233Z,3.33
2018-06-09T05:02:12.823Z,2.80
2018-06-09T05:04:17.096Z,4.10
2018-06-09T05:06:21.343Z,3.43
2018-06-09T05:08:25.797Z,4.23
2018-06-09T05:10:30.034Z,3.07
2018-06-09T05:12:33.994Z,3.60
2018-06-09T05:14:38.244Z,2.90
2018-06-09T05:16:42.521Z,2.60
2018-06-09T05:18:46.984Z,2.57
2018-06-09T05:20:51.412Z,3.40
2018-06-09T05:22:55.769Z,5.00
2018-06-09T05:24:59.997Z,2.90
2018-06-09T05:27:04.254Z,3.00
2018-06-09T05:29:08.534Z,3.33
2018-06-09T05:31:12.840Z,2.87
2018-06-09T05:33:17.253Z,2.60
2018-06-09T05:35:21.574Z,2.00
2018-06-09T05:37:25.813Z,2.03
2018-06-09T05:39:30.144Z,2.20
2018-06-09T05:41:34.489Z,1.83
2018-06-09T05:43:38.757Z,2.03
2018-06-09T05:45:43.030Z,1.90
2018-06-09T05:47:47.306Z,2.00
2018-06-09T05:49:51.748Z,2.40
2018-06-09T05:51:55.974Z,1.93
2018-06-09T05:54:00.213Z,2.53
2018-06-09T05:56:04.815Z,2.30
2018-06-09T05:58:09.081Z,2.73
2018-06-09T06:00:13.310Z,3.20
2018-06-09T06:02:17.710Z,3.07
2018-06-09T06:04:21.949Z,2.70
2018-06-09T06:06:26.388Z,2.67
2018-06-09T06:08:30.401Z,2.77
2018-06-09T06:10:35.958Z,2.40
2018-06-09T06:12:40.190Z,2.50
2018-06-09T06:14:45.366Z,2.80
2018-06-09T06:16:50.193Z,2.40
2018-06-09T06:18:54.418Z,2.20
2018-06-09T06:20:59.143Z,3.53
2018-06-09T06:23:03.285Z,2.53
2018-06-09T06:25:07.864Z,2.20
2018-06-09T06:27:12.065Z,3.10
2018-06-09T06:29:16.309Z,2.80
2018-06-09T06:31:20.576Z,2.20
2018-06-09T06:33:24.876Z,2.63
2018-06-09T06:35:29.209Z,2.10
2018-06-09T06:37:33.795Z,2.37
2018-06-09T06:39:38.057Z,2.43
2018-06-09T06:41:42.335Z,2.63
2018-06-09T06:43:46.606Z,2.50
2018-06-09T06:45:51.094Z,2.30
2018-06-09T06:47:55.434Z,2.40
2018-06-09T06:50:00.206Z,3.03
2018-06-09T06:52:04.460Z,2.57
2018-06-09T06:54:08.920Z,2.57
2018-06-09T06:56:13.367Z,2.90
2018-06-09T06:58:17.625Z,2.33
2018-06-09T07:00:22.238Z,2.17
2018-06-09T07:02:26.691Z,2.57
2018-06-09T07:04:31.805Z,2.57
2018-06-09T07:06:36.159Z,2.43
2018-06-09T07:08:40.462Z,2.60
2018-06-09T07:10:44.921Z,2.57
2018-06-09T07:12:49.209Z,2.67
2018-06-09T07:14:53.458Z,2.27
2018-06-09T07:16:57.957Z,2.57
2018-06-09T07:19:02.229Z,2.97
2018-06-09T07:21:06.395Z,2.63
2018-06-09T07:23:10.638Z,2.30
2018-06-09T07:25:14.877Z,2.20
2018-06-09T07:27:19.325Z,4.43
2018-06-09T07:29:23.565Z,2.70
2018-06-09T07:31:27.819Z,5.30
2018-06-09T07:33:32.083Z,2.50
2018-06-09T07:35:36.335Z,3.00
2018-06-09T07:37:40.811Z,3.67
2018-06-09T07:39:45.050Z,3.43
2018-06-09T07:41:49.290Z,3.07
2018-06-09T07:43:53.538Z,6.87
2018-06-09T07:45:57.883Z,6.33
2018-06-09T07:48:02.138Z,4.10
2018-06-09T07:50:06.680Z,3.03
2018-06-09T07:52:11.319Z,3.60
2018-06-09T07:54:15.547Z,2.63
2018-06-09T07:56:19.789Z,2.60
2018-06-09T07:58:24.246Z,3.83
2018-06-09T08:00:28.763Z,2.70
2018-06-09T08:02:33.186Z,2.20
2018-06-09T08:04:37.458Z,2.20
2018-06-09T08:06:41.905Z,2.50
2018-06-09T08:08:46.169Z,2.30
2018-06-09T08:10:50.691Z,2.17
2018-06-09T08:12:55.108Z,2.40
2018-06-09T08:14:59.342Z,1.97
2018-06-09T08:17:03.325Z,2.87
2018-06-09T08:19:07.771Z,2.37
2018-06-09T08:21:12.049Z,2.37
2018-06-09T08:23:17.692Z,2.10
2018-06-09T08:25:21.953Z,2.77
2018-06-09T08:27:26.206Z,2.90
2018-06-09T08:29:30.545Z,3.03
2018-06-09T08:31:34.894Z,3.37
2018-06-09T08:33:41.133Z,2.80
2018-06-09T08:35:45.264Z,3.80
2018-06-09T08:37:49.378Z,3.10
2018-06-09T08:39:53.626Z,3.80
2018-06-09T08:41:57.785Z,2.90
2018-06-09T08:44:02.574Z,2.90
2018-06-09T08:46:06.805Z,2.30
2018-06-09T08:48:11.098Z,3.67
2018-06-09T08:50:15.374Z,3.43
2018-06-09T08:52:19.648Z,3.10
2018-06-09T08:54:23.866Z,2.27
2018-06-09T08:56:28.177Z,2.80
2018-06-09T08:58:32.165Z,3.23
2018-06-09T09:00:36.594Z,2.47
2018-06-09T09:02:40.860Z,2.30
2018-06-09T09:04:45.134Z,2.40
2018-06-09T09:06:49.405Z,2.30
2018-06-09T09:08:53.923Z,2.43
2018-06-09T09:10:58.202Z,2.50
2018-06-09T09:13:02.433Z,2.80
2018-06-09T09:15:06.626Z,1.97
2018-06-09T09:17:11.203Z,2.53
2018-06-09T09:19:15.452Z,2.40
2018-06-09T09:21:19.761Z,2.73
2018-06-09T09:23:24.049Z,2.40
2018-06-09T09:25:29.109Z,2.90
2018-06-09T09:27:33.710Z,2.33
2018-06-09T09:29:37.969Z,2.63
2018-06-09T09:31:42.329Z,2.40
2018-06-09T09:33:46.561Z,2.40
2018-06-09T09:35:51.146Z,2.20
2018-06-09T09:37:55.614Z,2.30
2018-06-09T09:39:59.857Z,2.37
2018-06-09T09:42:04.421Z,2.47
2018-06-09T09:44:08.676Z,2.10
2018-06-09T09:46:12.970Z,1.90
2018-06-09T09:48:17.585Z,2.00
2018-06-09T09:50:21.891Z,2.37
2018-06-09T09:52:26.218Z,1.77
2018-06-09T09:54:30.237Z,2.27
2018-06-09T09:56:34.768Z,2.30
2018-06-09T09:58:38.736Z,2.07
2018-06-09T10:00:43.520Z,3.00
2018-06-09T10:02:47.781Z,3.20
2018-06-09T10:04:52.364Z,3.27
2018-06-09T10:06:56.518Z,2.50
2018-06-09T10:09:01.139Z,2.90
2018-06-09T10:11:05.213Z,3.33
2018-06-09T10:13:10.113Z,2.83
2018-06-09T10:15:14.390Z,2.30
2018-06-09T10:17:18.670Z,3.83
2018-06-09T10:19:22.922Z,2.57
2018-06-09T10:21:27.273Z,2.50
2018-06-09T10:23:31.741Z,3.33
2018-06-09T10:25:35.970Z,3.87
2018-06-09T10:27:39.930Z,3.00
2018-06-09T10:29:44.190Z,2.80
2018-06-09T10:31:48.414Z,3.47
2018-06-09T10:33:52.650Z,3.20
2018-06-09T10:35:57.258Z,1.90
2018-06-09T10:38:01.579Z,3.20
2018-06-09T10:40:05.806Z,2.50
2018-06-09T10:42:10.054Z,2.40
2018-06-09T10:44:14.285Z,2.20
2018-06-09T10:46:18.552Z,1.97
2018-06-09T10:48:22.822Z,2.70
2018-06-09T10:50:27.045Z,2.30
2018-06-09T10:52:31.277Z,2.63
2018-06-09T10:54:35.970Z,2.33
2018-06-09T10:56:40.321Z,2.70
2018-06-09T10:58:44.456Z,2.17
2018-06-09T11:00:48.757Z,2.10
2018-06-09T11:02:52.997Z,2.10
2018-06-09T11:04:57.242Z,2.00
2018-06-09T11:07:01.584Z,1.90
2018-06-09T11:09:06.968Z,1.73
2018-06-09T11:11:11.242Z,3.13
2018-06-09T11:13:15.482Z,1.80
2018-06-09T11:15:19.709Z,1.90
2018-06-09T11:17:24.013Z,1.80
2018-06-09T11:19:28.293Z,1.67
2018-06-09T11:21:32.506Z,3.90
2018-06-09T11:23:37.570Z,1.90
2018-06-09T11:25:41.850Z,1.80
2018-06-09T11:27:46.131Z,2.23
2018-06-09T11:29:50.401Z,2.30
2018-06-09T11:31:54.639Z,1.80
2018-06-09T11:33:58.885Z,1.70
2018-06-09T11:36:03.470Z,1.70
2018-06-09T11:38:07.956Z,2.00
2018-06-09T11:40:12.250Z,2.20
2018-06-09T11:42:16.490Z,2.70
2018-06-09T11:44:20.746Z,2.40
2018-06-09T11:46:25.219Z,1.87
2018-06-09T11:48:30.122Z,2.08
2018-06-09T11:50:34.893Z,1.82
2018-06-09T11:52:39.930Z,1.98
2018-06-09T11:54:44.717Z,1.70
2018-06-09T11:56:49.534Z,2.00
2018-06-09T11:58:54.590Z,1.82
2018-06-09T12:00:59.380Z,1.95
2018-06-09T12:03:04.184Z,1.80
2018-06-09T12:05:08.982Z,2.00
2018-06-09T12:07:15.038Z,1.85
2018-06-09T12:09:19.866Z,2.58
2018-06-09T12:11:24.995Z,2.30
2018-06-09T12:13:30.661Z,2.00
2018-06-09T12:15:35.469Z,1.90
2018-06-09T12:17:40.042Z,2.02
2018-06-09T12:19:44.362Z,2.00
2018-06-09T12:21:49.196Z,2.00
2018-06-09T12:23:53.493Z,2.95
2018-06-09T12:25:57.744Z,2.08
2018-06-09T12:28:02.396Z,1.80
2018-06-09T12:30:06.873Z,1.90
2018-06-09T12:32:11.154Z,1.97
2018-06-09T12:34:15.372Z,1.80
2018-06-09T12:36:20.448Z,1.90
2018-06-09T12:38:25.277Z,1.98
2018-06-09T12:40:30.075Z,1.70
2018-06-09T12:42:34.965Z,1.90
2018-06-09T12:44:39.762Z,3.12
2018-06-09T12:46:44.017Z,2.87
2018-06-09T12:48:48.355Z,2.08
2018-06-09T12:50:52.841Z,2.62
2018-06-09T12:52:57.082Z,1.90
2018-06-09T12:55:01.458Z,2.02
2018-06-09T12:57:06.069Z,1.67
2018-06-09T12:59:10.402Z,2.12
2018-06-09T13:01:14.653Z,2.00
2018-06-09T13:03:19.178Z,1.65
2018-06-09T13:05:23.434Z,2.05
2018-06-09T13:07:27.729Z,2.37
2018-06-09T13:09:32.055Z,2.00
2018-06-09T13:11:36.337Z,2.42
2018-06-09T13:13:40.333Z,2.47
2018-06-09T13:15:44.618Z,2.27
2018-06-09T13:17:48.830Z,1.95
2018-06-09T13:19:53.041Z,1.85
2018-06-09T13:21:57.000Z,2.00
2018-06-09T13:24:01.259Z,2.20
2018-06-09T13:26:06.537Z,2.22
2018-06-09T13:28:11.104Z,2.20
2018-06-09T13:30:15.459Z,2.53
2018-06-09T13:32:19.960Z,2.20
2018-06-09T13:34:24.530Z,2.05
2018-06-09T13:36:28.879Z,2.40
2018-06-09T13:38:33.674Z,2.87
2018-06-09T13:40:38.543Z,2.15
2018-06-09T13:42:43.334Z,2.42
2018-06-09T13:44:48.137Z,2.20
2018-06-09T13:46:52.963Z,2.02
2018-06-09T13:48:57.378Z,3.07
2018-06-09T13:51:02.938Z,2.35
2018-06-09T13:53:07.245Z,2.87
2018-06-09T13:55:11.480Z,2.40
2018-06-09T13:57:16.121Z,2.50
2018-06-09T13:59:20.366Z,2.90
2018-06-09T14:01:25.188Z,2.65
2018-06-09T14:03:30.149Z,2.50
2018-06-09T14:05:35.008Z,2.80
2018-06-09T14:07:39.806Z,2.70
2018-06-09T14:09:44.646Z,2.50
2018-06-09T14:11:49.494Z,2.65
2018-06-09T14:13:54.290Z,2.80
2018-06-09T14:15:59.073Z,2.80
2018-06-09T14:18:04.668Z,2.75
2018-06-09T14:20:09.473Z,2.10
2018-06-09T14:22:14.268Z,2.45
2018-06-09T14:24:19.117Z,2.25
2018-06-09T14:26:23.373Z,2.90
2018-06-09T14:28:28.161Z,2.30
2018-06-09T14:30:32.646Z,1.90
2018-06-09T14:32:36.926Z,2.50
2018-06-09T14:34:41.356Z,2.17
2018-06-09T14:36:45.982Z,2.10
2018-06-09T14:38:50.405Z,2.17
2018-06-09T14:40:54.838Z,2.40
2018-06-09T14:42:59.123Z,2.60
2018-06-09T14:45:03.370Z,2.07
2018-06-09T14:47:07.642Z,2.50
2018-06-09T14:49:12.293Z,2.80
2018-06-09T14:51:16.325Z,2.70
2018-06-09T14:53:20.590Z,2.45
2018-06-09T14:55:25.429Z,2.17
2018-06-09T14:57:29.774Z,2.60
2018-06-09T14:59:34.092Z,2.43
2018-06-09T15:01:38.146Z,2.90
2018-06-09T15:03:42.036Z,2.10
2018-06-09T15:05:46.453Z,2.10
2018-06-09T15:07:51.317Z,2.25
2018-06-09T15:09:55.625Z,2.10
2018-06-09T15:11:59.967Z,2.40
2018-06-09T15:14:04.439Z,2.67
2018-06-09T15:16:08.723Z,2.27
2018-06-09T15:18:13.082Z,2.40
2018-06-09T15:20:17.553Z,2.77
2018-06-09T15:22:21.798Z,2.50
2018-06-09T15:24:26.069Z,2.40
2018-06-09T15:26:30.481Z,2.60
2018-06-09T15:28:34.746Z,2.67
2018-06-09T15:30:38.997Z,2.70
2018-06-09T15:32:43.229Z,4.17
2018-06-09T15:34:47.627Z,3.95
2018-06-09T15:36:51.974Z,2.95
2018-06-09T15:38:56.347Z,2.67
2018-06-09T15:41:00.633Z,2.75
2018-06-09T15:43:05.270Z,2.77
2018-06-09T15:45:09.523Z,3.07
2018-06-09T15:47:13.767Z,2.30
2018-06-09T15:49:18.081Z,2.72
2018-06-09T15:51:22.453Z,2.92
2018-06-09T15:53:26.710Z,3.10
2018-06-09T15:55:30.966Z,3.15
2018-06-09T15:57:35.397Z,2.80
2018-06-09T15:59:39.481Z,3.05
2018-06-09T16:01:43.711Z,3.10
2018-06-09T16:03:48.075Z,3.10
2018-06-09T16:05:52.409Z,2.85
2018-06-09T16:07:56.829Z,2.80
2018-06-09T16:10:01.082Z,2.80
2018-06-09T16:12:05.081Z,3.10
2018-06-09T16:14:09.362Z,3.00
2018-06-09T16:16:13.606Z,2.30
2018-06-09T16:18:18.476Z,2.72
2018-06-09T16:20:23.310Z,2.60
2018-06-09T16:22:28.132Z,2.20
2018-06-09T16:24:32.918Z,2.83
2018-06-09T16:26:38.073Z,3.10
2018-06-09T16:28:43.120Z,4.20
2018-06-09T16:30:47.976Z,2.85
2018-06-09T16:32:52.886Z,3.00
2018-06-09T16:34:57.611Z,2.65
2018-06-09T16:37:02.510Z,3.10
2018-06-09T16:39:08.012Z,2.87
2018-06-09T16:41:12.815Z,2.40
2018-06-09T16:43:17.442Z,2.92
2018-06-09T16:45:21.894Z,3.30
2018-06-09T16:47:26.574Z,3.35
2018-06-09T16:49:31.307Z,2.85
2018-06-09T16:51:36.042Z,2.77
2018-06-09T16:53:41.032Z,3.75
2018-06-09T16:55:45.268Z,3.10
2018-06-09T16:57:49.743Z,3.25
2018-06-09T16:59:54.071Z,2.70
2018-06-09T17:01:58.438Z,3.00
2018-06-09T17:04:03.277Z,2.80
2018-06-09T17:06:08.344Z,2.70
2018-06-09T17:08:13.208Z,3.10
2018-06-09T17:10:17.533Z,2.70
2018-06-09T17:12:21.874Z,2.40
2018-06-09T17:14:26.828Z,3.90
2018-06-09T17:16:31.118Z,2.97
2018-06-09T17:18:35.495Z,3.23
2018-06-09T17:20:39.746Z,3.37
2018-06-09T17:22:44.061Z,3.30
2018-06-09T17:24:48.487Z,3.00
2018-06-09T17:26:52.997Z,4.13
2018-06-09T17:28:57.334Z,3.57
2018-06-09T17:31:01.578Z,3.10
2018-06-09T17:33:05.881Z,3.10
2018-06-09T17:35:10.163Z,2.73
2018-06-09T17:37:14.580Z,3.23
2018-06-09T17:39:19.337Z,3.07
2018-06-09T17:41:23.599Z,2.77
2018-06-09T17:43:29.442Z,2.67
2018-06-09T17:45:33.588Z,3.60
2018-06-09T17:47:37.794Z,3.13
2018-06-09T17:49:42.026Z,2.60
2018-06-09T17:51:46.282Z,2.50
2018-06-09T17:53:50.606Z,2.73
2018-06-09T17:55:54.868Z,2.70
2018-06-09T17:57:59.777Z,2.70
2018-06-09T18:00:04.326Z,2.60
2018-06-09T18:02:08.908Z,2.63
2018-06-09T18:04:14.078Z,2.40
2018-06-09T18:06:18.370Z,2.33
2018-06-09T18:08:22.661Z,2.10
2018-06-09T18:10:26.949Z,2.50
2018-06-09T18:12:31.235Z,2.17
2018-06-09T18:14:35.197Z,2.23
2018-06-09T18:16:39.501Z,2.17
2018-06-09T18:18:43.800Z,3.13
2018-06-09T18:20:48.092Z,3.07
2018-06-09T18:22:52.444Z,2.70
2018-06-09T18:39:47.913Z,3.80
2018-06-09T18:41:52.083Z,2.60
2018-06-09T18:43:56.368Z,2.50
2018-06-09T18:46:00.614Z,2.60
2018-06-09T18:48:05.222Z,2.73
2018-06-09T18:50:09.842Z,2.90
2018-06-09T18:52:14.066Z,2.50
2018-06-09T18:54:18.329Z,2.97
2018-06-09T18:56:22.636Z,2.60
2018-06-09T18:58:26.887Z,2.77
2018-06-09T19:00:31.655Z,2.43
2018-06-09T19:02:35.831Z,2.40
2018-06-09T19:04:40.076Z,2.47
2018-06-09T19:06:44.318Z,3.00
2018-06-09T19:08:48.594Z,2.53
2018-06-09T19:10:52.989Z,3.20
2018-06-09T19:12:57.261Z,11.13
2018-06-09T19:15:01.650Z,5.50
2018-06-09T19:17:05.941Z,7.20
2018-06-09T19:19:10.194Z,3.23
2018-06-09T19:21:14.430Z,2.80
2018-06-09T19:23:18.694Z,3.00
2018-06-09T19:25:23.217Z,3.03
2018-06-09T19:27:27.484Z,2.70
2018-06-09T19:29:32.018Z,3.47
2018-06-09T19:31:36.277Z,3.50
2018-06-09T19:33:40.736Z,3.60
2018-06-09T19:35:45.016Z,3.00
2018-06-09T19:37:49.452Z,3.00
2018-06-09T19:39:54.044Z,4.10
2018-06-09T19:41:58.046Z,2.80
2018-06-09T19:44:02.162Z,3.00
2018-06-09T19:46:06.525Z,3.43
2018-06-09T19:48:10.733Z,3.60
2018-06-09T19:50:14.988Z,3.30
2018-06-09T19:52:19.593Z,3.00
2018-06-09T19:54:23.987Z,3.10
2018-06-09T19:56:27.993Z,3.20
2018-06-09T19:58:32.182Z,10.87
2018-06-09T20:00:36.725Z,3.87
2018-06-09T20:02:40.945Z,3.60
2018-06-09T20:04:45.223Z,3.30
2018-06-09T20:06:49.437Z,14.70
2018-06-09T20:08:53.356Z,4.50
2018-06-09T20:10:58.122Z,3.50
2018-06-09T20:13:02.390Z,3.20
2018-06-09T20:15:06.721Z,2.70
2018-06-09T20:17:11.178Z,3.33
2018-06-09T20:19:15.410Z,3.00
2018-06-09T20:21:19.451Z,4.00
2018-06-09T20:23:23.738Z,3.53
2018-06-09T20:25:28.082Z,2.97
2018-06-09T20:27:32.368Z,3.00
2018-06-09T20:29:36.621Z,3.23
2018-06-09T20:31:40.904Z,3.30
2018-06-09T20:33:44.941Z,3.20
2018-06-09T20:35:49.194Z,3.70
2018-06-09T20:37:53.450Z,3.00
2018-06-09T20:39:57.697Z,2.93
2018-06-09T20:42:01.448Z,2.50
2018-06-09T20:44:05.341Z,2.23
2018-06-09T20:46:09.373Z,2.50
2018-06-09T20:48:13.557Z,2.10
2018-06-09T20:50:17.815Z,2.20
2018-06-09T20:52:22.449Z,2.60
2018-06-09T20:54:26.722Z,2.73
2018-06-09T20:56:30.994Z,2.40
2018-06-09T20:58:39.954Z,2.60
2018-06-09T21:00:44.213Z,2.10
2018-06-09T21:02:48.517Z,2.63
2018-06-09T21:04:52.758Z,2.00
2018-06-09T21:06:57.019Z,2.67
2018-06-09T21:09:01.271Z,2.87
2018-06-09T21:11:05.818Z,2.40
2018-06-09T21:13:10.355Z,4.30
2018-06-09T21:15:14.802Z,3.17
2018-06-09T21:17:19.066Z,11.00
2018-06-09T21:19:23.401Z,2.77
2018-06-09T21:21:27.767Z,2.97
2018-06-09T21:23:32.015Z,3.67
2018-06-09T21:25:36.318Z,2.43
2018-06-09T21:27:45.952Z,2.70
2018-06-09T21:29:55.577Z,2.70
2018-06-09T21:32:04.042Z,2.93
2018-06-09T21:34:25.460Z,4.43
2018-06-09T21:36:34.893Z,4.27
2018-06-09T21:38:43.610Z,2.53
2018-06-09T21:40:48.036Z,2.77
2018-06-09T21:42:57.970Z,3.27
2018-06-09T21:45:09.250Z,2.57
2018-06-09T21:47:13.510Z,3.10
2018-06-09T21:49:18.057Z,5.00
2018-06-09T21:51:22.397Z,5.10
2018-06-09T21:53:26.593Z,8.33
2018-06-09T21:55:30.903Z,4.30
2018-06-09T21:57:35.142Z,3.60
2018-06-09T21:59:39.381Z,3.70
2018-06-09T22:01:43.663Z,3.00
2018-06-09T22:03:47.652Z,3.80
2018-06-09T22:05:51.679Z,3.40
2018-06-09T22:07:55.958Z,3.60
2018-06-09T22:10:00.330Z,5.03
2018-06-09T22:12:04.638Z,4.80
2018-06-09T22:14:08.898Z,4.50
2018-06-09T22:16:13.225Z,4.37
2018-06-09T22:18:17.453Z,3.80
2018-06-09T22:20:21.703Z,3.50
2018-06-09T22:22:26.354Z,5.63
2018-06-09T22:24:30.927Z,4.33
2018-06-09T22:26:34.919Z,3.63
2018-06-09T22:28:39.538Z,3.07
2018-06-09T22:30:43.851Z,3.53
2018-06-09T22:32:48.163Z,3.50
2018-06-09T22:34:52.477Z,2.63
2018-06-09T22:36:56.417Z,3.10
2018-06-09T22:39:00.694Z,3.20
2018-06-09T22:41:04.666Z,3.10
2018-06-09T22:43:08.881Z,2.83
2018-06-09T22:45:12.877Z,2.70
2018-06-09T22:47:17.121Z,2.00
2018-06-09T22:49:21.301Z,2.30
2018-06-09T22:51:25.889Z,2.53
2018-06-09T22:53:30.149Z,2.90
2018-06-09T22:55:34.398Z,2.20
2018-06-09T22:57:38.645Z,2.70
2018-06-09T22:59:42.884Z,2.70
2018-06-09T23:01:47.126Z,3.23
2018-06-09T23:03:51.642Z,5.83
2018-06-09T23:05:55.853Z,3.27
2018-06-09T23:08:00.115Z,6.53
2018-06-09T23:10:04.837Z,3.07
2018-06-09T23:12:09.078Z,2.77
2018-06-09T23:14:13.394Z,3.73
2018-06-09T23:16:17.658Z,3.07
2018-06-09T23:18:21.893Z,2.90
2018-06-09T23:20:25.849Z,3.00
2018-06-09T23:22:30.110Z,2.47
2018-06-09T23:24:34.250Z,2.97
2018-06-09T23:26:38.580Z,3.10
2018-06-09T23:28:43.104Z,3.00
2018-06-09T23:30:47.386Z,2.50
2018-06-09T23:32:51.526Z,3.10
2018-06-09T23:34:55.749Z,2.63
2018-06-09T23:37:00.330Z,2.60
2018-06-09T23:39:06.657Z,3.20
2018-06-09T23:41:10.936Z,2.60
2018-06-09T23:43:15.244Z,2.90
2018-06-09T23:45:19.477Z,3.07
2018-06-09T23:47:23.730Z,3.03
2018-06-09T23:49:27.998Z,2.83
2018-06-09T23:51:32.267Z,3.07
2018-06-09T23:53:36.713Z,3.33
2018-06-09T23:55:40.998Z,3.00
2018-06-09T23:57:45.230Z,3.17
2018-06-09T23:59:49.485Z,2.87
